createdAt,value
2018-03-22T00:00:38.267Z,82.00
2018-03-22T00:01:38.166Z,81.53
2018-03-22T00:02:38.091Z,81.05
2018-03-22T00:03:37.996Z,81.43
2018-03-22T00:04:37.926Z,81.62
2018-03-22T00:05:37.836Z,80.96
2018-03-22T00:06:37.757Z,82.00
2018-03-22T00:07:37.658Z,82.66
2018-03-22T00:08:37.585Z,83.33
2018-03-22T00:09:37.494Z,82.95
2018-03-22T00:10:37.409Z,82.66
2018-03-22T00:11:37.317Z,83.42
2018-03-22T00:12:37.244Z,83.84
2018-03-22T00:13:37.148Z,84.32
2018-03-22T00:14:37.073Z,84.98
2018-03-22T00:15:36.979Z,85.64
2018-03-22T00:16:36.904Z,86.02
2018-03-22T00:17:36.812Z,86.77
2018-03-22T00:18:36.740Z,87.24
2018-03-22T00:19:36.638Z,87.99
2018-03-22T00:20:36.558Z,87.62
2018-03-22T00:21:36.469Z,87.71
2018-03-22T00:22:36.388Z,87.38
2018-03-22T00:23:36.301Z,87.38
2018-03-22T00:24:36.221Z,87.24
2018-03-22T00:25:36.130Z,87.43
2018-03-22T00:26:36.053Z,87.00
2018-03-22T00:27:35.968Z,87.29
2018-03-22T00:28:35.883Z,86.06
2018-03-22T00:29:35.792Z,85.21
2018-03-22T00:30:35.715Z,84.92
2018-03-22T00:31:35.623Z,85.21
2018-03-22T00:32:35.541Z,85.11
2018-03-22T00:33:35.453Z,85.07
2018-03-22T00:34:35.373Z,85.11
2018-03-22T00:35:35.282Z,85.21
2018-03-22T00:36:35.207Z,84.74
2018-03-22T00:37:35.111Z,84.83
2018-03-22T00:38:35.034Z,84.55
2018-03-22T00:39:34.941Z,84.74
2018-03-22T00:40:34.863Z,84.27
2018-03-22T00:41:34.771Z,82.76
2018-03-22T00:42:34.699Z,81.05
2018-03-22T00:43:34.600Z,79.46
2018-03-22T00:44:34.522Z,78.66
2018-03-22T00:45:34.430Z,79.32
2018-03-22T00:46:34.351Z,81.02
2018-03-22T00:47:34.260Z,81.77
2018-03-22T00:48:34.183Z,82.15
2018-03-22T00:49:34.092Z,83.28
2018-03-22T00:50:34.015Z,83.18
2018-03-22T00:51:33.916Z,83.28
2018-03-22T00:52:33.843Z,83.18
2018-03-22T00:53:33.752Z,83.56
2018-03-22T00:54:33.677Z,82.71
2018-03-22T00:55:33.580Z,82.53
2018-03-22T00:56:33.502Z,82.62
2018-03-22T00:57:33.410Z,81.68
2018-03-22T00:58:33.337Z,81.49
2018-03-22T00:59:33.243Z,81.77
2018-03-22T01:00:33.169Z,82.06
2018-03-22T01:01:33.083Z,82.71
2018-03-22T01:02:32.994Z,81.96
2018-03-22T01:03:32.898Z,81.68
2018-03-22T01:04:32.821Z,80.07
2018-03-22T01:05:32.734Z,79.79
2018-03-22T01:06:32.650Z,81.49
2018-03-22T01:07:32.558Z,82.24
2018-03-22T01:08:32.482Z,83.56
2018-03-22T01:09:32.391Z,84.13
2018-03-22T01:10:32.309Z,85.07
2018-03-22T01:11:32.217Z,85.92
2018-03-22T01:12:32.142Z,86.58
2018-03-22T01:13:32.048Z,86.58
2018-03-22T01:14:31.971Z,86.58
2018-03-22T01:15:31.877Z,86.68
2018-03-22T01:16:31.798Z,87.05
2018-03-22T01:17:31.704Z,86.77
2018-03-22T01:18:31.629Z,87.05
2018-03-22T01:19:31.541Z,87.05
2018-03-22T01:20:31.466Z,86.96
2018-03-22T01:21:31.369Z,86.96
2018-03-22T01:22:31.295Z,87.15
2018-03-22T01:23:31.201Z,87.43
2018-03-22T01:24:31.122Z,87.24
2018-03-22T01:25:31.027Z,87.05
2018-03-22T01:26:30.946Z,87.62
2018-03-22T01:27:30.850Z,87.15
2018-03-22T01:28:30.778Z,86.49
2018-03-22T01:29:30.684Z,86.21
2018-03-22T01:30:30.604Z,85.26
2018-03-22T01:31:30.513Z,84.22
2018-03-22T01:32:30.432Z,83.18
2018-03-22T01:33:30.345Z,83.09
2018-03-22T01:34:30.303Z,83.37
2018-03-22T01:35:30.181Z,83.75
2018-03-22T01:36:30.092Z,83.09
2018-03-22T01:37:30.001Z,82.53
2018-03-22T01:38:29.924Z,82.15
2018-03-22T01:39:29.831Z,81.87
2018-03-22T01:40:29.752Z,82.24
2018-03-22T01:41:29.661Z,82.71
2018-03-22T01:42:29.595Z,83.09
2018-03-22T01:43:29.487Z,83.37
2018-03-22T01:44:29.424Z,83.75
2018-03-22T01:45:29.320Z,84.03
2018-03-22T01:46:29.237Z,84.41
2018-03-22T01:47:29.147Z,83.56
2018-03-22T01:48:29.073Z,83.65
2018-03-22T01:49:28.983Z,84.32
2018-03-22T01:50:28.900Z,85.92
2018-03-22T01:51:28.809Z,86.96
2018-03-22T01:52:28.731Z,87.81
2018-03-22T01:53:28.635Z,87.90
2018-03-22T01:54:28.558Z,88.47
2018-03-22T01:55:28.463Z,88.94
2018-03-22T01:56:28.388Z,88.75
2018-03-22T01:57:28.297Z,88.28
2018-03-22T01:58:28.219Z,88.94
2018-03-22T01:59:28.124Z,88.75
2018-03-22T02:00:28.046Z,89.03
2018-03-22T02:01:27.954Z,88.94
2018-03-22T02:02:27.879Z,89.03
2018-03-22T02:03:27.784Z,88.65
2018-03-22T02:04:27.705Z,88.37
2018-03-22T02:05:27.614Z,88.56
2018-03-22T02:06:27.534Z,88.94
2018-03-22T02:07:27.438Z,88.28
2018-03-22T02:08:27.361Z,88.37
2018-03-22T02:09:27.272Z,87.62
2018-03-22T02:10:27.188Z,87.34
2018-03-22T02:11:27.098Z,87.43
2018-03-22T02:12:27.018Z,85.64
2018-03-22T02:13:26.926Z,83.37
2018-03-22T02:14:26.853Z,81.96
2018-03-22T02:15:26.754Z,82.62
2018-03-22T02:16:26.678Z,83.18
2018-03-22T02:17:26.585Z,84.22
2018-03-22T02:18:26.508Z,85.92
2018-03-22T02:19:26.416Z,86.68
2018-03-22T02:20:26.337Z,87.62
2018-03-22T02:21:26.241Z,87.62
2018-03-22T02:22:26.160Z,87.81
2018-03-22T02:23:26.070Z,88.09
2018-03-22T02:24:25.990Z,87.90
2018-03-22T02:25:25.901Z,87.99
2018-03-22T02:26:25.823Z,88.09
2018-03-22T02:27:25.728Z,88.09
2018-03-22T02:28:25.649Z,88.09
2018-03-22T02:29:25.591Z,88.09
2018-03-22T02:30:25.485Z,88.28
2018-03-22T02:31:25.387Z,88.09
2018-03-22T02:32:25.308Z,88.09
2018-03-22T02:33:25.214Z,88.18
2018-03-22T02:34:25.135Z,87.52
2018-03-22T02:35:25.045Z,87.99
2018-03-22T02:36:24.968Z,87.62
2018-03-22T02:37:24.872Z,86.68
2018-03-22T02:38:24.795Z,85.45
2018-03-22T02:39:24.704Z,85.26
2018-03-22T02:40:24.623Z,84.88
2018-03-22T02:41:24.533Z,84.79
2018-03-22T02:42:24.445Z,84.98
2018-03-22T02:43:24.356Z,85.73
2018-03-22T02:44:24.284Z,86.30
2018-03-22T02:45:24.184Z,86.40
2018-03-22T02:46:24.109Z,86.40
2018-03-22T02:47:24.017Z,86.87
2018-03-22T02:48:23.937Z,87.05
2018-03-22T02:49:23.847Z,86.58
2018-03-22T02:50:23.767Z,86.40
2018-03-22T02:51:23.672Z,86.58
2018-03-22T02:52:23.593Z,86.49
2018-03-22T02:53:23.502Z,85.92
2018-03-22T02:54:23.424Z,84.41
2018-03-22T02:55:23.328Z,83.47
2018-03-22T02:56:23.248Z,81.87
2018-03-22T02:57:23.164Z,82.62
2018-03-22T02:58:23.083Z,83.71
2018-03-22T02:59:22.987Z,84.56
2018-03-22T03:00:22.908Z,85.97
2018-03-22T03:01:22.809Z,86.54
2018-03-22T03:02:22.737Z,86.54
2018-03-22T03:03:22.641Z,86.16
2018-03-22T03:04:22.574Z,84.28
2018-03-22T03:05:22.469Z,83.71
2018-03-22T03:06:22.395Z,83.71
2018-03-22T03:07:22.300Z,83.52
2018-03-22T03:08:22.222Z,84.37
2018-03-22T03:09:22.129Z,84.56
2018-03-22T03:10:22.054Z,85.31
2018-03-22T03:11:21.955Z,85.88
2018-03-22T03:12:21.879Z,86.35
2018-03-22T03:13:21.786Z,87.38
2018-03-22T03:14:21.709Z,88.14
2018-03-22T03:15:21.619Z,87.76
2018-03-22T03:16:21.533Z,88.14
2018-03-22T03:17:21.439Z,88.42
2018-03-22T03:18:21.372Z,88.80
2018-03-22T03:19:21.270Z,88.61
2018-03-22T03:20:21.193Z,88.89
2018-03-22T03:21:21.094Z,88.89
2018-03-22T03:22:21.016Z,88.89
2018-03-22T03:23:20.924Z,89.08
2018-03-22T03:24:20.847Z,88.89
2018-03-22T03:25:20.756Z,88.89
2018-03-22T03:26:20.673Z,88.80
2018-03-22T03:27:20.583Z,88.71
2018-03-22T03:28:20.505Z,88.89
2018-03-22T03:29:20.410Z,89.08
2018-03-22T03:30:20.436Z,88.71
2018-03-22T03:31:20.240Z,88.71
2018-03-22T03:32:20.158Z,88.71
2018-03-22T03:33:20.069Z,88.80
2018-03-22T03:34:19.993Z,88.14
2018-03-22T03:35:19.893Z,87.19
2018-03-22T03:36:19.816Z,86.91
2018-03-22T03:37:19.722Z,87.10
2018-03-22T03:38:19.648Z,87.57
2018-03-22T03:39:19.549Z,87.48
2018-03-22T03:40:19.473Z,87.86
2018-03-22T03:41:19.427Z,87.95
2018-03-22T03:42:19.305Z,89.18
2018-03-22T03:43:19.208Z,88.89
2018-03-22T03:44:19.126Z,88.80
2018-03-22T03:45:19.040Z,88.52
2018-03-22T03:46:18.956Z,88.42
2018-03-22T03:47:18.862Z,88.33
2018-03-22T03:48:18.804Z,88.42
2018-03-22T03:49:18.697Z,88.42
2018-03-22T03:50:18.609Z,88.14
2018-03-22T03:51:18.519Z,86.63
2018-03-22T03:52:18.438Z,86.07
2018-03-22T03:53:18.346Z,85.78
2018-03-22T03:54:18.272Z,86.07
2018-03-22T03:55:18.178Z,85.78
2018-03-22T03:56:18.099Z,85.97
2018-03-22T03:57:18.002Z,86.44
2018-03-22T03:58:17.930Z,87.76
2018-03-22T03:59:17.834Z,88.42
2018-03-22T04:00:17.752Z,88.23
2018-03-22T04:01:17.659Z,88.71
2018-03-22T04:02:17.577Z,88.52
2018-03-22T04:03:17.485Z,88.89
2018-03-22T04:04:17.406Z,88.80
2018-03-22T04:05:17.314Z,88.42
2018-03-22T04:06:17.238Z,88.52
2018-03-22T04:07:17.140Z,89.37
2018-03-22T04:08:17.063Z,89.18
2018-03-22T04:09:16.965Z,88.89
2018-03-22T04:10:16.893Z,88.61
2018-03-22T04:11:16.798Z,88.80
2018-03-22T04:12:16.721Z,88.89
2018-03-22T04:13:16.623Z,88.71
2018-03-22T04:14:16.550Z,89.08
2018-03-22T04:15:16.452Z,88.89
2018-03-22T04:16:16.377Z,88.89
2018-03-22T04:17:16.282Z,88.52
2018-03-22T04:18:16.199Z,88.71
2018-03-22T04:19:16.106Z,88.94
2018-03-22T04:20:16.032Z,88.89
2018-03-22T04:21:15.938Z,88.52
2018-03-22T04:22:15.859Z,87.95
2018-03-22T04:23:15.769Z,87.48
2018-03-22T04:24:15.680Z,87.01
2018-03-22T04:25:15.594Z,86.91
2018-03-22T04:26:15.513Z,87.67
2018-03-22T04:27:15.426Z,88.04
2018-03-22T04:28:15.344Z,88.04
2018-03-22T04:29:15.244Z,89.08
2018-03-22T04:30:15.168Z,88.80
2018-03-22T04:31:15.073Z,89.27
2018-03-22T04:32:14.997Z,89.37
2018-03-22T04:33:14.903Z,89.27
2018-03-22T04:34:14.828Z,89.37
2018-03-22T04:35:14.730Z,89.03
2018-03-22T04:36:14.650Z,89.37
2018-03-22T04:37:14.563Z,89.18
2018-03-22T04:38:14.479Z,89.51
2018-03-22T04:39:14.389Z,89.22
2018-03-22T04:40:14.309Z,89.41
2018-03-22T04:41:14.214Z,89.41
2018-03-22T04:42:14.142Z,89.60
2018-03-22T04:43:14.042Z,89.41
2018-03-22T04:44:13.968Z,89.60
2018-03-22T04:45:13.870Z,89.51
2018-03-22T04:46:13.795Z,89.41
2018-03-22T04:47:13.705Z,89.22
2018-03-22T04:48:13.619Z,89.51
2018-03-22T04:49:13.528Z,89.69
2018-03-22T04:50:13.467Z,89.79
2018-03-22T04:51:13.353Z,89.88
2018-03-22T04:52:13.347Z,89.88
2018-03-22T04:53:13.180Z,89.32
2018-03-22T04:54:13.104Z,89.79
2018-03-22T04:55:13.010Z,89.69
2018-03-22T04:56:12.937Z,89.79
2018-03-22T04:57:12.846Z,89.79
2018-03-22T04:58:12.762Z,89.79
2018-03-22T04:59:12.711Z,89.79
2018-03-22T05:00:12.586Z,89.60
2018-03-22T05:01:12.496Z,89.60
2018-03-22T05:02:12.420Z,89.13
2018-03-22T05:03:12.320Z,89.22
2018-03-22T05:04:12.246Z,89.32
2018-03-22T05:05:12.151Z,89.32
2018-03-22T05:06:12.076Z,89.32
2018-03-22T05:07:11.980Z,89.03
2018-03-22T05:08:11.904Z,89.51
2018-03-22T05:09:11.807Z,89.41
2018-03-22T05:10:11.729Z,89.32
2018-03-22T05:11:11.631Z,89.41
2018-03-22T05:12:11.556Z,89.22
2018-03-22T05:13:11.462Z,88.94
2018-03-22T05:14:11.385Z,88.94
2018-03-22T05:15:11.293Z,88.75
2018-03-22T05:16:11.214Z,88.94
2018-03-22T05:17:11.121Z,88.65
2018-03-22T05:18:11.041Z,88.84
2018-03-22T05:19:10.950Z,89.03
2018-03-22T05:20:10.868Z,88.75
2018-03-22T05:21:10.781Z,88.56
2018-03-22T05:22:10.700Z,88.75
2018-03-22T05:23:10.603Z,89.22
2018-03-22T05:24:10.526Z,89.22
2018-03-22T05:25:10.433Z,89.32
2018-03-22T05:26:10.361Z,89.88
2018-03-22T05:27:10.264Z,90.26
2018-03-22T05:28:10.183Z,90.17
2018-03-22T05:29:10.089Z,89.88
2018-03-22T05:30:10.009Z,89.51
2018-03-22T05:31:09.925Z,89.88
2018-03-22T05:32:09.839Z,89.98
2018-03-22T05:33:09.749Z,89.79
2018-03-22T05:34:09.667Z,89.13
2018-03-22T05:35:09.583Z,88.65
2018-03-22T05:36:09.492Z,88.75
2018-03-22T05:37:09.405Z,88.09
2018-03-22T05:38:09.329Z,87.71
2018-03-22T05:39:09.233Z,87.34
2018-03-22T05:40:09.153Z,88.47
2018-03-22T05:41:09.102Z,88.56
2018-03-22T05:42:08.980Z,88.37
2018-03-22T05:43:08.903Z,88.94
2018-03-22T05:44:08.813Z,89.22
2018-03-22T05:45:08.719Z,88.47
2018-03-22T05:46:08.639Z,88.65
2018-03-22T05:47:08.544Z,88.94
2018-03-22T05:48:08.468Z,88.47
2018-03-22T05:49:08.374Z,88.84
2018-03-22T05:50:08.295Z,88.79
2018-03-22T05:51:08.205Z,89.17
2018-03-22T05:52:08.125Z,88.98
2018-03-22T05:53:08.030Z,88.60
2018-03-22T05:54:07.951Z,88.04
2018-03-22T05:55:07.859Z,87.76
2018-03-22T05:56:07.786Z,86.63
2018-03-22T05:57:07.691Z,85.11
2018-03-22T05:58:07.613Z,83.80
2018-03-22T05:59:07.519Z,83.14
2018-03-22T06:00:07.435Z,82.00
2018-03-22T06:01:07.347Z,81.81
2018-03-22T06:02:07.278Z,81.81
2018-03-22T06:03:07.185Z,82.66
2018-03-22T06:04:07.098Z,83.61
2018-03-22T06:05:07.013Z,84.27
2018-03-22T06:06:06.929Z,84.36
2018-03-22T06:07:06.835Z,84.17
2018-03-22T06:08:06.760Z,84.55
2018-03-22T06:09:06.660Z,84.92
2018-03-22T06:10:06.586Z,84.55
2018-03-22T06:11:06.495Z,84.27
2018-03-22T06:12:06.420Z,84.45
2018-03-22T06:13:06.323Z,84.64
2018-03-22T06:14:06.235Z,84.36
2018-03-22T06:15:06.179Z,84.45
2018-03-22T06:16:06.066Z,84.55
2018-03-22T06:17:05.989Z,84.17
2018-03-22T06:18:05.897Z,84.36
2018-03-22T06:19:05.817Z,84.64
2018-03-22T06:20:05.724Z,84.55
2018-03-22T06:21:05.650Z,84.64
2018-03-22T06:22:05.556Z,83.70
2018-03-22T06:23:05.474Z,83.17
2018-03-22T06:24:05.386Z,83.27
2018-03-22T06:25:05.310Z,82.32
2018-03-22T06:26:05.221Z,81.38
2018-03-22T06:27:05.139Z,80.25
2018-03-22T06:28:05.045Z,78.55
2018-03-22T06:29:04.966Z,77.89
2018-03-22T06:30:04.874Z,77.04
2018-03-22T06:31:04.794Z,75.53
2018-03-22T06:32:04.704Z,74.68
2018-03-22T06:33:04.676Z,74.49
2018-03-22T06:34:04.536Z,73.93
2018-03-22T06:35:04.458Z,74.30
2018-03-22T06:36:04.362Z,74.58
2018-03-22T06:37:04.289Z,74.30
2018-03-22T06:38:04.202Z,73.64
2018-03-22T06:39:04.119Z,72.69
2018-03-22T06:40:04.037Z,72.13
2018-03-22T06:41:03.949Z,72.83
2018-03-22T06:42:03.859Z,74.24
2018-03-22T06:43:03.773Z,75.05
2018-03-22T06:44:03.686Z,76.57
2018-03-22T06:45:03.610Z,77.70
2018-03-22T06:46:03.518Z,78.08
2018-03-22T06:47:03.441Z,75.00
2018-03-22T06:48:03.350Z,73.21
2018-03-22T06:49:03.273Z,71.79
2018-03-22T06:50:03.181Z,70.84
2018-03-22T06:51:03.106Z,71.69
2018-03-22T06:52:03.010Z,71.60
2018-03-22T06:53:02.931Z,71.79
2018-03-22T06:54:02.842Z,72.45
2018-03-22T06:55:02.767Z,71.60
2018-03-22T06:56:02.673Z,71.69
2018-03-22T06:57:02.624Z,72.36
2018-03-22T06:58:02.504Z,71.88
2018-03-22T06:59:02.424Z,72.07
2018-03-22T07:00:02.335Z,71.41
2018-03-22T07:01:02.253Z,71.12
2018-03-22T07:02:02.165Z,71.22
2018-03-22T07:03:02.086Z,71.03
2018-03-22T07:04:01.997Z,71.69
2018-03-22T07:05:01.920Z,71.50
2018-03-22T07:06:01.832Z,71.88
2018-03-22T07:07:01.752Z,71.98
2018-03-22T07:08:01.661Z,71.60
2018-03-22T07:09:01.584Z,71.41
2018-03-22T07:10:01.494Z,70.75
2018-03-22T07:11:01.415Z,71.26
2018-03-22T07:12:01.327Z,69.84
2018-03-22T07:13:01.252Z,69.27
2018-03-22T07:14:01.159Z,69.65
2018-03-22T07:15:01.078Z,69.93
2018-03-22T07:16:00.990Z,70.21
2018-03-22T07:17:00.914Z,70.03
2018-03-22T07:18:00.819Z,70.12
2018-03-22T07:19:00.742Z,70.88
2018-03-22T07:20:00.650Z,70.88
2018-03-22T07:21:00.577Z,70.97
2018-03-22T07:22:00.485Z,70.59
2018-03-22T07:23:00.414Z,70.40
2018-03-22T07:24:00.318Z,69.56
2018-03-22T07:25:00.243Z,69.27
2018-03-22T07:26:00.156Z,69.74
2018-03-22T07:27:00.079Z,69.93
2018-03-22T07:27:59.983Z,70.31
2018-03-22T07:28:59.906Z,69.93
2018-03-22T07:29:59.814Z,69.74
2018-03-22T07:30:59.741Z,70.12
2018-03-22T07:31:59.653Z,70.21
2018-03-22T07:32:59.576Z,70.78
2018-03-22T07:33:59.483Z,70.31
2018-03-22T07:34:59.413Z,70.03
2018-03-22T07:35:59.319Z,71.07
2018-03-22T07:36:59.240Z,71.35
2018-03-22T07:37:59.147Z,71.39
2018-03-22T07:38:59.074Z,71.48
2018-03-22T07:39:58.983Z,71.20
2018-03-22T07:40:58.906Z,71.11
2018-03-22T07:41:58.820Z,69.68
2018-03-22T07:42:58.741Z,68.55
2018-03-22T07:43:58.650Z,67.51
2018-03-22T07:44:58.590Z,67.32
2018-03-22T07:45:58.487Z,67.41
2018-03-22T07:46:58.405Z,67.51
2018-03-22T07:47:58.316Z,67.13
2018-03-22T07:48:58.248Z,67.13
2018-03-22T07:49:58.152Z,66.75
2018-03-22T07:50:58.073Z,67.41
2018-03-22T07:51:57.985Z,68.46
2018-03-22T07:52:57.909Z,67.98
2018-03-22T07:53:57.819Z,67.22
2018-03-22T07:54:57.786Z,67.32
2018-03-22T07:55:57.652Z,66.94
2018-03-22T07:56:57.579Z,66.00
2018-03-22T07:57:57.490Z,65.81
2018-03-22T07:58:57.520Z,66.09
2018-03-22T07:59:57.322Z,66.00
2018-03-22T08:00:57.314Z,66.47
2018-03-22T08:01:57.160Z,66.38
2018-03-22T08:02:57.120Z,65.91
2018-03-22T08:03:56.994Z,65.72
2018-03-22T08:04:57.032Z,64.48
2018-03-22T08:05:56.832Z,64.86
2018-03-22T08:06:56.872Z,65.34
2018-03-22T08:07:56.657Z,65.43
2018-03-22T08:08:56.648Z,65.24
2018-03-22T08:09:56.497Z,65.05
2018-03-22T08:10:56.459Z,64.77
2018-03-22T08:11:56.329Z,63.92
2018-03-22T08:12:56.265Z,64.20
2018-03-22T08:13:56.168Z,64.48
2018-03-22T08:14:56.184Z,63.76
2018-03-22T08:15:55.997Z,63.39
2018-03-22T08:16:55.983Z,63.10
2018-03-22T08:17:55.842Z,63.48
2018-03-22T08:18:55.792Z,63.57
2018-03-22T08:19:55.676Z,63.48
2018-03-22T08:20:55.703Z,63.20
2018-03-22T08:21:55.504Z,64.61
2018-03-22T08:22:55.513Z,64.42
2018-03-22T08:23:55.340Z,62.34
2018-03-22T08:24:55.319Z,61.96
2018-03-22T08:25:55.178Z,62.25
2018-03-22T08:26:55.129Z,61.87
2018-03-22T08:27:55.012Z,62.25
2018-03-22T08:28:55.038Z,60.64
2018-03-22T08:29:54.849Z,60.93
2018-03-22T08:30:54.850Z,61.68
2018-03-22T08:31:54.684Z,61.30
2018-03-22T08:32:54.660Z,60.45
2018-03-22T08:33:54.521Z,60.07
2018-03-22T08:34:54.463Z,59.69
2018-03-22T08:35:54.355Z,60.55
2018-03-22T08:36:54.376Z,59.98
2018-03-22T08:37:54.190Z,60.26
2018-03-22T08:39:04.932Z,61.30
2018-03-22T08:40:04.940Z,60.36
2018-03-22T08:40:53.947Z,59.88
2018-03-22T08:41:53.873Z,59.88
2018-03-22T08:42:53.775Z,60.36
2018-03-22T08:43:53.808Z,60.07
2018-03-22T08:44:53.614Z,60.26
2018-03-22T08:45:53.533Z,59.98
2018-03-22T08:46:53.520Z,60.07
2018-03-22T08:47:53.375Z,59.88
2018-03-22T08:48:53.328Z,59.79
2018-03-22T08:49:53.206Z,59.98
2018-03-22T08:50:53.240Z,59.98
2018-03-22T08:51:53.038Z,60.36
2018-03-22T08:52:53.046Z,61.30
2018-03-22T08:53:52.878Z,61.02
2018-03-22T08:54:52.856Z,60.26
2018-03-22T08:55:52.715Z,59.79
2018-03-22T08:56:52.672Z,60.45
2018-03-22T08:57:52.551Z,60.45
2018-03-22T08:58:52.575Z,59.69
2018-03-22T08:59:52.390Z,59.69
2018-03-22T09:00:52.381Z,59.31
2018-03-22T09:01:52.221Z,59.31
2018-03-22T09:02:52.196Z,60.55
2018-03-22T09:03:52.056Z,60.74
2018-03-22T09:04:51.999Z,59.79
2018-03-22T09:05:51.892Z,60.36
2018-03-22T09:06:51.910Z,61.58
2018-03-22T09:07:51.730Z,62.15
2018-03-22T09:08:51.713Z,62.25
2018-03-22T09:09:51.568Z,61.80
2018-03-22T09:10:51.582Z,60.48
2018-03-22T09:11:51.399Z,60.58
2018-03-22T09:12:51.437Z,61.15
2018-03-22T09:13:51.238Z,61.90
2018-03-22T09:14:51.252Z,60.48
2018-03-22T09:15:51.079Z,59.91
2018-03-22T09:16:51.055Z,59.34
2018-03-22T09:17:50.917Z,58.97
2018-03-22T09:18:50.866Z,58.78
2018-03-22T09:19:50.751Z,57.83
2018-03-22T09:20:50.773Z,58.11
2018-03-22T09:21:50.586Z,58.97
2018-03-22T09:22:50.588Z,58.97
2018-03-22T09:23:50.419Z,58.30
2018-03-22T09:24:50.395Z,57.73
2018-03-22T09:25:50.258Z,57.64
2018-03-22T09:26:52.245Z,58.21
2018-03-22T09:27:50.116Z,57.54
2018-03-22T09:28:51.033Z,58.02
2018-03-22T09:29:49.931Z,57.83
2018-03-22T09:30:49.918Z,57.07
2018-03-22T09:31:49.766Z,57.35
2018-03-22T09:32:49.692Z,57.17
2018-03-22T09:33:49.628Z,58.02
2018-03-22T09:34:49.533Z,58.05
2018-03-22T09:35:49.547Z,59.28
2018-03-22T09:36:49.360Z,59.47
2018-03-22T09:37:49.349Z,59.09
2018-03-22T09:38:49.197Z,59.09
2018-03-22T09:39:49.161Z,58.62
2018-03-22T09:40:49.034Z,58.24
2018-03-22T09:41:49.089Z,57.95
2018-03-22T09:42:48.873Z,57.20
2018-03-22T09:43:48.804Z,57.86
2018-03-22T09:44:48.709Z,57.20
2018-03-22T09:45:48.685Z,57.76
2018-03-22T09:46:48.550Z,58.81
2018-03-22T09:47:48.499Z,59.00
2018-03-22T09:48:48.385Z,58.90
2018-03-22T09:49:48.410Z,58.71
2018-03-22T09:50:48.220Z,58.90
2018-03-22T09:51:48.211Z,58.84
2018-03-22T09:52:48.063Z,59.12
2018-03-22T09:53:48.021Z,58.17
2018-03-22T09:54:47.901Z,57.42
2018-03-22T09:55:47.932Z,57.98
2018-03-22T09:56:47.740Z,56.37
2018-03-22T09:57:47.742Z,54.67
2018-03-22T09:58:47.579Z,54.67
2018-03-22T09:59:47.547Z,55.71
2018-03-22T10:00:47.416Z,56.75
2018-03-22T10:01:47.356Z,55.90
2018-03-22T10:02:47.281Z,55.33
2018-03-22T10:03:47.267Z,55.24
2018-03-22T10:04:47.092Z,55.80
2018-03-22T10:05:47.073Z,55.62
2018-03-22T10:06:46.927Z,56.37
2018-03-22T10:07:46.883Z,56.27
2018-03-22T10:08:46.773Z,55.99
2018-03-22T10:09:46.796Z,55.71
2018-03-22T10:10:46.609Z,55.99
2018-03-22T10:11:46.602Z,55.90
2018-03-22T10:12:46.448Z,56.18
2018-03-22T10:13:46.408Z,55.99
2018-03-22T10:14:46.286Z,55.80
2018-03-22T10:15:46.320Z,55.14
2018-03-22T10:16:46.130Z,55.90
2018-03-22T10:17:46.130Z,56.75
2018-03-22T10:18:45.967Z,57.04
2018-03-22T10:19:45.940Z,56.27
2018-03-22T10:20:45.803Z,55.90
2018-03-22T10:21:45.771Z,55.33
2018-03-22T10:22:45.643Z,54.57
2018-03-22T10:23:45.658Z,54.00
2018-03-22T10:24:45.481Z,53.44
2018-03-22T10:25:45.468Z,54.19
2018-03-22T10:26:45.317Z,53.25
2018-03-22T10:27:45.276Z,53.25
2018-03-22T10:28:45.158Z,53.84
2018-03-22T10:29:45.184Z,54.50
2018-03-22T10:30:44.998Z,54.69
2018-03-22T10:31:44.991Z,54.03
2018-03-22T10:32:44.838Z,53.37
2018-03-22T10:33:44.800Z,53.27
2018-03-22T10:34:44.678Z,53.06
2018-03-22T10:35:44.710Z,53.27
2018-03-22T10:36:44.518Z,53.06
2018-03-22T10:37:44.513Z,52.29
2018-03-22T10:38:44.357Z,52.20
2018-03-22T10:39:44.331Z,53.06
2018-03-22T10:40:44.199Z,52.48
2018-03-22T10:41:44.137Z,52.68
2018-03-22T10:42:44.036Z,52.48
2018-03-22T10:43:44.048Z,52.39
2018-03-22T10:44:43.875Z,52.96
2018-03-22T10:45:43.854Z,52.48
2018-03-22T10:46:43.717Z,52.42
2018-03-22T10:47:43.659Z,52.33
2018-03-22T10:48:43.632Z,53.37
2018-03-22T10:49:43.573Z,53.84
2018-03-22T10:50:43.392Z,54.22
2018-03-22T10:51:43.382Z,54.60
2018-03-22T10:52:43.243Z,55.36
2018-03-22T10:53:43.193Z,56.30
2018-03-22T10:54:43.073Z,56.12
2018-03-22T10:55:43.109Z,55.74
2018-03-22T10:56:42.912Z,54.60
2018-03-22T10:57:42.914Z,54.41
2018-03-22T10:58:42.755Z,54.41
2018-03-22T10:59:42.681Z,54.13
2018-03-22T11:00:42.595Z,54.79
2018-03-22T11:01:42.626Z,54.32
2018-03-22T11:02:42.434Z,53.37
2018-03-22T11:03:42.437Z,53.65
2018-03-22T11:04:42.271Z,53.84
2018-03-22T11:05:42.246Z,55.26
2018-03-22T11:06:42.118Z,54.03
2018-03-22T11:07:42.054Z,53.27
2018-03-22T11:08:41.949Z,53.18
2018-03-22T11:09:41.976Z,51.50
2018-03-22T11:10:41.796Z,51.68
2018-03-22T11:11:41.772Z,52.06
2018-03-22T11:12:41.637Z,52.54
2018-03-22T11:13:41.578Z,52.06
2018-03-22T11:14:41.480Z,51.87
2018-03-22T11:15:41.490Z,51.87
2018-03-22T11:16:41.318Z,50.93
2018-03-22T11:17:41.303Z,51.12
2018-03-22T11:18:41.158Z,51.31
2018-03-22T11:19:41.108Z,50.74
2018-03-22T11:20:40.999Z,49.98
2018-03-22T11:21:40.925Z,50.55
2018-03-22T11:22:40.839Z,51.03
2018-03-22T11:23:40.828Z,50.83
2018-03-22T11:24:40.685Z,50.83
2018-03-22T11:25:40.636Z,51.12
2018-03-22T11:26:40.517Z,51.68
2018-03-22T11:27:40.543Z,50.83
2018-03-22T11:28:40.362Z,50.93
2018-03-22T11:29:40.353Z,51.03
2018-03-22T11:30:40.203Z,51.03
2018-03-22T11:31:40.171Z,51.59
2018-03-22T11:32:40.043Z,50.36
2018-03-22T11:33:40.077Z,49.98
2018-03-22T11:34:39.894Z,50.55
2018-03-22T11:35:39.881Z,50.83
2018-03-22T11:36:39.732Z,50.93
2018-03-22T11:37:39.694Z,50.93
2018-03-22T11:38:39.567Z,51.03
2018-03-22T11:39:39.602Z,51.12
2018-03-22T11:40:39.418Z,50.93
2018-03-22T11:41:39.410Z,51.12
2018-03-22T11:42:39.249Z,51.87
2018-03-22T11:43:39.215Z,53.02
2018-03-22T11:44:39.097Z,52.54
2018-03-22T11:45:39.129Z,51.12
2018-03-22T11:46:38.935Z,50.74
2018-03-22T11:47:38.938Z,51.12
2018-03-22T11:48:38.774Z,51.87
2018-03-22T11:49:38.751Z,52.83
2018-03-22T11:50:38.618Z,52.35
2018-03-22T11:51:38.556Z,51.68
2018-03-22T11:52:38.464Z,52.64
2018-03-22T11:53:38.466Z,52.45
2018-03-22T11:54:38.299Z,51.03
2018-03-22T11:55:38.270Z,52.06
2018-03-22T11:56:38.140Z,51.87
2018-03-22T11:57:38.082Z,51.87
2018-03-22T11:58:37.985Z,51.50
2018-03-22T11:59:37.989Z,51.97
2018-03-22T12:00:37.823Z,51.78
2018-03-22T12:01:37.798Z,51.40
2018-03-22T12:02:37.665Z,52.54
2018-03-22T12:03:37.619Z,51.68
2018-03-22T12:04:37.509Z,51.68
2018-03-22T12:05:37.525Z,52.16
2018-03-22T12:06:37.346Z,52.26
2018-03-22T12:07:37.327Z,53.20
2018-03-22T12:08:37.188Z,53.11
2018-03-22T12:09:37.138Z,51.78
2018-03-22T12:10:37.027Z,51.12
2018-03-22T12:11:37.045Z,52.64
2018-03-22T12:12:36.875Z,52.45
2018-03-22T12:13:36.853Z,52.16
2018-03-22T12:14:36.713Z,52.35
2018-03-22T12:15:36.665Z,52.35
2018-03-22T12:16:36.555Z,53.68
2018-03-22T12:17:36.573Z,53.20
2018-03-22T12:18:36.397Z,53.20
2018-03-22T12:19:36.382Z,53.11
2018-03-22T12:20:36.244Z,53.30
2018-03-22T12:21:36.256Z,54.34
2018-03-22T12:22:36.074Z,54.72
2018-03-22T12:23:36.104Z,54.25
2018-03-22T12:24:35.919Z,53.87
2018-03-22T12:25:35.909Z,53.30
2018-03-22T12:26:35.758Z,52.73
2018-03-22T12:27:35.717Z,53.11
2018-03-22T12:28:35.601Z,52.92
2018-03-22T12:29:35.632Z,53.11
2018-03-22T12:30:35.443Z,53.20
2018-03-22T12:31:35.437Z,53.20
2018-03-22T12:32:35.280Z,54.25
2018-03-22T12:33:35.244Z,53.58
2018-03-22T12:34:35.122Z,53.77
2018-03-22T12:35:35.155Z,54.63
2018-03-22T12:36:34.973Z,56.05
2018-03-22T12:37:34.963Z,56.24
2018-03-22T12:38:34.808Z,54.37
2018-03-22T12:39:34.773Z,54.37
2018-03-22T12:40:34.650Z,54.66
2018-03-22T12:41:34.580Z,55.13
2018-03-22T12:42:34.491Z,55.51
2018-03-22T12:43:34.571Z,56.08
2018-03-22T12:44:34.335Z,56.08
2018-03-22T12:45:34.306Z,56.27
2018-03-22T12:46:34.173Z,57.03
2018-03-22T12:47:34.213Z,57.59
2018-03-22T12:48:34.018Z,57.98
2018-03-22T12:49:34.021Z,57.88
2018-03-22T12:50:33.860Z,58.54
2018-03-22T12:51:33.826Z,58.92